Country
Station

 

Weather  for  Risalpur  -  Pakistan    Pakistan

  
12 °C (54 °F)
    
 
 

Current METAR for Risalpur is :

OPRS 151700Z VRB03KT CAVOK 12/06 Q1016

 

This is a report for Risalpur - Pakistan.
 
The report was made 20 hours and 8 minutes ago, at 17:00 UTC .
The wind was blowing at a speed of 1.5 meters per second (3.5 miles per hour) from variable directions.
 
The temperature was 12 °C (54 °F), with a dew-point at 6 °C (43 °F).
The atmospheric pressure was 1016 hPa (30.00 inHg).
The relative humidity was 66.7%.
 
There were no clouds below 1500 meter (5000 feet) and no cumulonimbus clouds.
 
The overall visibility was greater than 10 kilometers (6.2 miles).
 

 
 
 
 

Country :   A   B   C   D   E   F   G   H   I   J   K   L   M   N   O   P   Q   R   S   T   U   V   W   Y   Z

 

Site Info  |  Disclaimer  |  Credits  |  Privacy
Contact us  |  Add to favorites
© 2013-2019 METARs - All rights reserved